SBPG/PNG METAR and TAF weather

Enter ICAO airport designator
Station Type Date Time Source
SBPG METAR 2020/02/19 11:00 UTC NOAA

SBPG 191100Z 06001KT 9999 FEW035 SCT080 22/20 Q1015


Station Type Date Time Source
SBPG Decoded METAR 2020/02/19 11:00 UTC NOAA

Paranagua, Brazil (SBPG) 25-31S 048-31W
Feb 19, 2020 - 06:00 AM EST / 2020.02.19 1100 UTC
Wind: from the ENE (060 degrees) at 1 MPH (1 KT):0
Visibility: greater than 7 mile(s):0
Sky conditions: partly cloudy
Temperature: 71 F (22 C)
Dew Point: 68 F (20 C)
Relative Humidity: 88%
Pressure (altimeter): 29.97 in. Hg (1015 hPa)
ob: SBPG 191100Z 06001KT 9999 FEW035 SCT080 22/20 Q1015
cycle: 11

Station Type Date Time Source
SBPG TAF UTC NOAA

Error!

Example: see airport list